sensor_id;sensor_type;location;lat;lon;timestamp;temperature;humidity
57843;DHT22;43673;51.058;3.734;2023-12-20T00:00:08;7.40;99.90
57843;DHT22;43673;51.058;3.734;2023-12-20T00:02:34;7.30;99.90
57843;DHT22;43673;51.058;3.734;2023-12-20T00:05:00;7.30;99.90
57843;DHT22;43673;51.058;3.734;2023-12-20T00:07:26;7.50;99.90
57843;DHT22;43673;51.058;3.734;2023-12-20T00:09:55;7.50;99.90
57843;DHT22;43673;51.058;3.734;2023-12-20T00:12:20;7.20;99.90
57843;DHT22;43673;51.058;3.734;2023-12-20T00:14:46;7.20;99.90
57843;DHT22;43673;51.058;3.734;2023-12-20T00:17:12;7.10;99.90
57843;DHT22;43673;51.058;3.734;2023-12-20T00:19:38;7.20;99.90
57843;DHT22;43673;51.058;3.734;2023-12-20T00:22:03;7.20;99.90
57843;DHT22;43673;51.058;3.734;2023-12-20T00:24:29;7.10;99.90
57843;DHT22;43673;51.058;3.734;2023-12-20T00:26:55;7.10;99.90
57843;DHT22;43673;51.058;3.734;2023-12-20T00:29:20;7.00;99.90
57843;DHT22;43673;51.058;3.734;2023-12-20T00:31:46;7.00;99.90
57843;DHT22;43673;51.058;3.734;2023-12-20T00:34:12;7.10;99.90
57843;DHT22;43673;51.058;3.734;2023-12-20T00:36:38;7.00;99.90
57843;DHT22;43673;51.058;3.734;2023-12-20T00:39:04;7.00;99.90
57843;DHT22;43673;51.058;3.734;2023-12-20T00:41:33;7.00;99.90
57843;DHT22;43673;51.058;3.734;2023-12-20T00:43:58;7.10;99.90
57843;DHT22;43673;51.058;3.734;2023-12-20T00:46:27;7.00;99.90
57843;DHT22;43673;51.058;3.734;2023-12-20T00:48:53;7.10;99.90
57843;DHT22;43673;51.058;3.734;2023-12-20T00:51:18;7.20;99.90
57843;DHT22;43673;51.058;3.734;2023-12-20T00:53:44;7.20;99.90
57843;DHT22;43673;51.058;3.734;2023-12-20T00:56:11;7.20;99.90
57843;DHT22;43673;51.058;3.734;2023-12-20T00:58:37;7.20;99.90
57843;DHT22;43673;51.058;3.734;2023-12-20T01:01:03;7.50;99.90
57843;DHT22;43673;51.058;3.734;2023-12-20T01:03:29;7.30;99.90
57843;DHT22;43673;51.058;3.734;2023-12-20T01:05:55;7.40;99.90
57843;DHT22;43673;51.058;3.734;2023-12-20T01:08:23;7.40;99.90
57843;DHT22;43673;51.058;3.734;2023-12-20T01:10:49;7.50;99.90
57843;DHT22;43673;51.058;3.734;2023-12-20T01:13:15;7.40;99.90
57843;DHT22;43673;51.058;3.734;2023-12-20T01:15:44;7.40;99.90
57843;DHT22;43673;51.058;3.734;2023-12-20T01:18:10;7.40;99.90
57843;DHT22;43673;51.058;3.734;2023-12-20T01:20:35;7.40;99.90
57843;DHT22;43673;51.058;3.734;2023-12-20T01:23:01;7.60;99.90
57843;DHT22;43673;51.058;3.734;2023-12-20T01:25:27;7.50;99.90
57843;DHT22;43673;51.058;3.734;2023-12-20T01:27:53;7.60;99.90
57843;DHT22;43673;51.058;3.734;2023-12-20T01:30:18;7.70;99.90
57843;DHT22;43673;51.058;3.734;2023-12-20T01:32:44;7.70;99.90
57843;DHT22;43673;51.058;3.734;2023-12-20T01:35:10;7.70;99.90
57843;DHT22;43673;51.058;3.734;2023-12-20T01:37:37;8.00;99.90
57843;DHT22;43673;51.058;3.734;2023-12-20T01:40:04;7.70;99.90
57843;DHT22;43673;51.058;3.734;2023-12-20T01:42:32;7.80;99.90
57843;DHT22;43673;51.058;3.734;2023-12-20T01:45:03;7.70;99.90
57843;DHT22;43673;51.058;3.734;2023-12-20T01:47:30;7.80;99.90
57843;DHT22;43673;51.058;3.734;2023-12-20T01:49:56;7.70;99.90
57843;DHT22;43673;51.058;3.734;2023-12-20T01:52:22;7.80;99.90
57843;DHT22;43673;51.058;3.734;2023-12-20T01:54:49;7.80;99.90
57843;DHT22;43673;51.058;3.734;2023-12-20T01:57:15;7.90;99.90
57843;DHT22;43673;51.058;3.734;2023-12-20T01:59:41;8.10;99.90
57843;DHT22;43673;51.058;3.734;2023-12-20T02:02:07;7.80;99.90
57843;DHT22;43673;51.058;3.734;2023-12-20T02:04:33;7.70;99.90
57843;DHT22;43673;51.058;3.734;2023-12-20T02:06:59;7.80;99.90
57843;DHT22;43673;51.058;3.734;2023-12-20T02:09:26;8.00;99.90
57843;DHT22;43673;51.058;3.734;2023-12-20T02:11:52;8.00;99.90
57843;DHT22;43673;51.058;3.734;2023-12-20T02:14:18;8.10;99.90
57843;DHT22;43673;51.058;3.734;2023-12-20T02:16:44;8.00;99.90
57843;DHT22;43673;51.058;3.734;2023-12-20T02:19:14;8.10;99.90
57843;DHT22;43673;51.058;3.734;2023-12-20T02:21:40;8.10;99.90
57843;DHT22;43673;51.058;3.734;2023-12-20T02:24:06;8.10;99.90
57843;DHT22;43673;51.058;3.734;2023-12-20T02:26:33;8.10;99.90
57843;DHT22;43673;51.058;3.734;2023-12-20T02:28:59;8.10;99.90
57843;DHT22;43673;51.058;3.734;2023-12-20T02:31:25;8.10;99.90
57843;DHT22;43673;51.058;3.734;2023-12-20T02:33:51;8.10;99.90
57843;DHT22;43673;51.058;3.734;2023-12-20T02:36:17;8.20;99.90
57843;DHT22;43673;51.058;3.734;2023-12-20T02:38:43;8.10;99.90
57843;DHT22;43673;51.058;3.734;2023-12-20T02:41:08;8.20;99.90
57843;DHT22;43673;51.058;3.734;2023-12-20T02:43:34;8.30;99.90
57843;DHT22;43673;51.058;3.734;2023-12-20T02:45:59;8.30;99.90
57843;DHT22;43673;51.058;3.734;2023-12-20T02:48:25;8.40;99.90
57843;DHT22;43673;51.058;3.734;2023-12-20T02:50:51;8.40;99.90
57843;DHT22;43673;51.058;3.734;2023-12-20T02:53:17;8.30;99.90
57843;DHT22;43673;51.058;3.734;2023-12-20T02:55:43;8.20;99.90
57843;DHT22;43673;51.058;3.734;2023-12-20T02:58:08;8.20;99.90
57843;DHT22;43673;51.058;3.734;2023-12-20T03:00:34;8.20;99.90
57843;DHT22;43673;51.058;3.734;2023-12-20T03:03:00;8.30;99.90
57843;DHT22;43673;51.058;3.734;2023-12-20T03:05:25;8.30;99.90
57843;DHT22;43673;51.058;3.734;2023-12-20T03:07:52;8.30;99.90
57843;DHT22;43673;51.058;3.734;2023-12-20T03:10:19;8.20;99.90
57843;DHT22;43673;51.058;3.734;2023-12-20T03:12:44;8.20;99.90
57843;DHT22;43673;51.058;3.734;2023-12-20T03:15:10;8.30;99.90
57843;DHT22;43673;51.058;3.734;2023-12-20T03:17:36;8.40;99.90
57843;DHT22;43673;51.058;3.734;2023-12-20T03:20:02;8.40;99.90
57843;DHT22;43673;51.058;3.734;2023-12-20T03:22:28;8.40;99.90
57843;DHT22;43673;51.058;3.734;2023-12-20T03:24:53;8.40;99.90
57843;DHT22;43673;51.058;3.734;2023-12-20T03:27:19;8.30;99.90
57843;DHT22;43673;51.058;3.734;2023-12-20T03:29:45;8.20;99.90
57843;DHT22;43673;51.058;3.734;2023-12-20T03:32:10;8.20;99.90
57843;DHT22;43673;51.058;3.734;2023-12-20T03:34:36;8.30;99.90
57843;DHT22;43673;51.058;3.734;2023-12-20T03:37:02;8.40;99.90
57843;DHT22;43673;51.058;3.734;2023-12-20T03:39:28;8.40;99.90
57843;DHT22;43673;51.058;3.734;2023-12-20T03:41:54;8.30;99.90
57843;DHT22;43673;51.058;3.734;2023-12-20T03:44:20;8.30;99.90
57843;DHT22;43673;51.058;3.734;2023-12-20T03:46:45;8.30;99.90
57843;DHT22;43673;51.058;3.734;2023-12-20T03:49:11;8.50;99.90
57843;DHT22;43673;51.058;3.734;2023-12-20T03:51:40;8.30;99.90
57843;DHT22;43673;51.058;3.734;2023-12-20T03:54:10;8.20;99.90
57843;DHT22;43673;51.058;3.734;2023-12-20T03:56:36;8.20;99.90
57843;DHT22;43673;51.058;3.734;2023-12-20T03:59:02;8.30;99.90
57843;DHT22;43673;51.058;3.734;2023-12-20T04:01:27;8.30;99.90
57843;DHT22;43673;51.058;3.734;2023-12-20T04:03:53;8.30;99.90
57843;DHT22;43673;51.058;3.734;2023-12-20T04:06:19;8.20;99.90
57843;DHT22;43673;51.058;3.734;2023-12-20T04:08:45;8.10;99.90
57843;DHT22;43673;51.058;3.734;2023-12-20T04:11:16;8.00;99.90
57843;DHT22;43673;51.058;3.734;2023-12-20T04:13:42;8.00;99.90
57843;DHT22;43673;51.058;3.734;2023-12-20T04:16:08;7.70;99.90
57843;DHT22;43673;51.058;3.734;2023-12-20T04:18:33;7.90;99.90
57843;DHT22;43673;51.058;3.734;2023-12-20T04:24:16;7.90;99.90
57843;DHT22;43673;51.058;3.734;2023-12-20T04:26:41;7.90;99.90
57843;DHT22;43673;51.058;3.734;2023-12-20T04:29:07;8.00;99.90
57843;DHT22;43673;51.058;3.734;2023-12-20T04:31:33;8.20;99.90
57843;DHT22;43673;51.058;3.734;2023-12-20T04:33:59;8.00;99.90
57843;DHT22;43673;51.058;3.734;2023-12-20T04:36:24;7.90;99.90
57843;DHT22;43673;51.058;3.734;2023-12-20T04:38:53;7.90;99.90
57843;DHT22;43673;51.058;3.734;2023-12-20T04:41:18;7.90;99.90
57843;DHT22;43673;51.058;3.734;2023-12-20T04:43:44;7.80;99.90
57843;DHT22;43673;51.058;3.734;2023-12-20T04:46:10;7.70;99.90
57843;DHT22;43673;51.058;3.734;2023-12-20T04:48:36;7.70;99.90
57843;DHT22;43673;51.058;3.734;2023-12-20T04:51:02;7.70;99.90
57843;DHT22;43673;51.058;3.734;2023-12-20T04:53:27;7.70;99.90
57843;DHT22;43673;51.058;3.734;2023-12-20T04:55:53;7.70;99.90
57843;DHT22;43673;51.058;3.734;2023-12-20T04:58:19;7.60;99.90
57843;DHT22;43673;51.058;3.734;2023-12-20T05:00:45;7.60;99.90
57843;DHT22;43673;51.058;3.734;2023-12-20T05:03:10;7.50;99.90
57843;DHT22;43673;51.058;3.734;2023-12-20T05:05:36;7.50;99.90
57843;DHT22;43673;51.058;3.734;2023-12-20T05:08:02;7.60;99.90
57843;DHT22;43673;51.058;3.734;2023-12-20T05:10:28;7.30;99.90
57843;DHT22;43673;51.058;3.734;2023-12-20T05:12:54;7.40;99.90
57843;DHT22;43673;51.058;3.734;2023-12-20T05:15:19;7.30;99.90
57843;DHT22;43673;51.058;3.734;2023-12-20T05:17:45;7.30;99.90
57843;DHT22;43673;51.058;3.734;2023-12-20T05:20:11;7.40;99.90
57843;DHT22;43673;51.058;3.734;2023-12-20T05:22:36;7.40;99.90
57843;DHT22;43673;51.058;3.734;2023-12-20T05:25:02;7.50;99.90
57843;DHT22;43673;51.058;3.734;2023-12-20T05:27:29;7.30;99.90
57843;DHT22;43673;51.058;3.734;2023-12-20T05:29:55;7.20;99.90
57843;DHT22;43673;51.058;3.734;2023-12-20T05:32:23;7.40;99.90
57843;DHT22;43673;51.058;3.734;2023-12-20T05:34:49;7.30;99.90
57843;DHT22;43673;51.058;3.734;2023-12-20T05:37:14;7.30;99.90
57843;DHT22;43673;51.058;3.734;2023-12-20T05:39:40;7.40;99.90
57843;DHT22;43673;51.058;3.734;2023-12-20T05:42:06;7.40;99.90
57843;DHT22;43673;51.058;3.734;2023-12-20T05:44:31;7.40;99.90
57843;DHT22;43673;51.058;3.734;2023-12-20T05:46:57;7.30;99.90
57843;DHT22;43673;51.058;3.734;2023-12-20T05:49:23;7.40;99.90
57843;DHT22;43673;51.058;3.734;2023-12-20T05:51:49;7.40;99.90
57843;DHT22;43673;51.058;3.734;2023-12-20T05:54:16;7.70;99.90
57843;DHT22;43673;51.058;3.734;2023-12-20T05:56:42;7.40;99.90
57843;DHT22;43673;51.058;3.734;2023-12-20T05:59:08;7.30;99.90
57843;DHT22;43673;51.058;3.734;2023-12-20T06:01:33;7.30;99.90
57843;DHT22;43673;51.058;3.734;2023-12-20T06:03:59;7.20;99.90
57843;DHT22;43673;51.058;3.734;2023-12-20T06:06:25;7.10;99.90
57843;DHT22;43673;51.058;3.734;2023-12-20T06:08:50;7.10;99.90
57843;DHT22;43673;51.058;3.734;2023-12-20T06:11:16;7.10;99.90
57843;DHT22;43673;51.058;3.734;2023-12-20T06:13:42;7.00;99.90
57843;DHT22;43673;51.058;3.734;2023-12-20T06:16:08;7.00;99.90
57843;DHT22;43673;51.058;3.734;2023-12-20T06:18:33;6.90;99.90
57843;DHT22;43673;51.058;3.734;2023-12-20T06:20:59;6.80;99.90
57843;DHT22;43673;51.058;3.734;2023-12-20T06:23:25;6.80;99.90
57843;DHT22;43673;51.058;3.734;2023-12-20T06:25:51;6.80;99.90
57843;DHT22;43673;51.058;3.734;2023-12-20T06:28:16;6.80;99.90
57843;DHT22;43673;51.058;3.734;2023-12-20T06:30:42;6.80;99.90
57843;DHT22;43673;51.058;3.734;2023-12-20T06:33:08;6.70;99.90
57843;DHT22;43673;51.058;3.734;2023-12-20T06:35:35;6.90;99.90
57843;DHT22;43673;51.058;3.734;2023-12-20T06:38:01;6.90;99.90
57843;DHT22;43673;51.058;3.734;2023-12-20T06:40:26;6.80;99.90
57843;DHT22;43673;51.058;3.734;2023-12-20T06:42:52;7.00;99.90
57843;DHT22;43673;51.058;3.734;2023-12-20T06:45:18;6.80;99.90
57843;DHT22;43673;51.058;3.734;2023-12-20T06:47:43;6.80;99.90
57843;DHT22;43673;51.058;3.734;2023-12-20T06:50:09;6.70;99.90
57843;DHT22;43673;51.058;3.734;2023-12-20T06:52:35;6.80;99.90
57843;DHT22;43673;51.058;3.734;2023-12-20T06:55:01;6.70;99.90
57843;DHT22;43673;51.058;3.734;2023-12-20T06:57:27;6.80;99.90
57843;DHT22;43673;51.058;3.734;2023-12-20T06:59:53;6.90;99.90
57843;DHT22;43673;51.058;3.734;2023-12-20T07:02:18;6.70;99.90
57843;DHT22;43673;51.058;3.734;2023-12-20T07:04:44;6.70;99.90
57843;DHT22;43673;51.058;3.734;2023-12-20T07:07:10;6.60;99.90
57843;DHT22;43673;51.058;3.734;2023-12-20T07:09:36;6.60;99.90
57843;DHT22;43673;51.058;3.734;2023-12-20T07:12:02;6.70;99.90
57843;DHT22;43673;51.058;3.734;2023-12-20T07:14:28;6.50;99.90
57843;DHT22;43673;51.058;3.734;2023-12-20T07:16:54;6.40;99.90
57843;DHT22;43673;51.058;3.734;2023-12-20T07:19:20;6.50;99.90
57843;DHT22;43673;51.058;3.734;2023-12-20T07:21:46;6.60;99.90
57843;DHT22;43673;51.058;3.734;2023-12-20T07:24:11;6.50;99.90
57843;DHT22;43673;51.058;3.734;2023-12-20T07:26:37;6.60;99.90
57843;DHT22;43673;51.058;3.734;2023-12-20T07:29:06;6.70;99.90
57843;DHT22;43673;51.058;3.734;2023-12-20T07:31:33;6.80;99.90
57843;DHT22;43673;51.058;3.734;2023-12-20T07:34:00;6.50;99.90
57843;DHT22;43673;51.058;3.734;2023-12-20T07:36:25;6.50;99.90
57843;DHT22;43673;51.058;3.734;2023-12-20T07:38:51;6.50;99.90
57843;DHT22;43673;51.058;3.734;2023-12-20T07:41:17;6.50;99.90
57843;DHT22;43673;51.058;3.734;2023-12-20T07:43:42;6.60;99.90
57843;DHT22;43673;51.058;3.734;2023-12-20T07:46:09;6.60;99.90
57843;DHT22;43673;51.058;3.734;2023-12-20T07:48:35;6.60;99.90
57843;DHT22;43673;51.058;3.734;2023-12-20T07:51:01;6.70;99.90
57843;DHT22;43673;51.058;3.734;2023-12-20T07:53:27;6.70;99.90
57843;DHT22;43673;51.058;3.734;2023-12-20T07:55:53;6.70;99.90
57843;DHT22;43673;51.058;3.734;2023-12-20T07:58:19;6.70;99.90
57843;DHT22;43673;51.058;3.734;2023-12-20T08:00:45;6.70;99.90
57843;DHT22;43673;51.058;3.734;2023-12-20T08:03:11;6.70;99.90
57843;DHT22;43673;51.058;3.734;2023-12-20T08:05:38;6.70;99.90
57843;DHT22;43673;51.058;3.734;2023-12-20T08:08:06;6.70;99.90
57843;DHT22;43673;51.058;3.734;2023-12-20T08:10:32;6.70;99.90
57843;DHT22;43673;51.058;3.734;2023-12-20T08:13:14;6.70;99.90
57843;DHT22;43673;51.058;3.734;2023-12-20T08:15:58;6.70;99.90
57843;DHT22;43673;51.058;3.734;2023-12-20T08:18:27;6.80;99.90
57843;DHT22;43673;51.058;3.734;2023-12-20T08:20:53;6.80;99.90
57843;DHT22;43673;51.058;3.734;2023-12-20T08:23:19;7.00;99.90
57843;DHT22;43673;51.058;3.734;2023-12-20T08:25:46;6.90;99.90
57843;DHT22;43673;51.058;3.734;2023-12-20T08:28:12;6.90;99.90
57843;DHT22;43673;51.058;3.734;2023-12-20T08:30:38;6.90;99.90
57843;DHT22;43673;51.058;3.734;2023-12-20T08:33:04;6.90;99.90
57843;DHT22;43673;51.058;3.734;2023-12-20T08:35:30;6.90;99.90
57843;DHT22;43673;51.058;3.734;2023-12-20T08:37:56;6.80;99.90
57843;DHT22;43673;51.058;3.734;2023-12-20T08:40:22;6.90;99.90
57843;DHT22;43673;51.058;3.734;2023-12-20T08:42:47;7.10;99.90
57843;DHT22;43673;51.058;3.734;2023-12-20T08:45:13;7.00;99.90
57843;DHT22;43673;51.058;3.734;2023-12-20T08:47:39;7.00;99.90
57843;DHT22;43673;51.058;3.734;2023-12-20T08:50:06;7.10;99.90
57843;DHT22;43673;51.058;3.734;2023-12-20T08:52:32;7.20;99.90
57843;DHT22;43673;51.058;3.734;2023-12-20T08:54:58;7.30;99.90
57843;DHT22;43673;51.058;3.734;2023-12-20T08:57:27;7.40;99.90
57843;DHT22;43673;51.058;3.734;2023-12-20T08:59:53;7.60;99.90
57843;DHT22;43673;51.058;3.734;2023-12-20T09:02:19;7.70;99.90
57843;DHT22;43673;51.058;3.734;2023-12-20T09:04:45;7.70;99.90
57843;DHT22;43673;51.058;3.734;2023-12-20T09:07:24;7.70;99.90
57843;DHT22;43673;51.058;3.734;2023-12-20T09:09:50;7.60;99.90
57843;DHT22;43673;51.058;3.734;2023-12-20T09:12:17;7.80;99.90
57843;DHT22;43673;51.058;3.734;2023-12-20T09:14:43;8.00;99.90
57843;DHT22;43673;51.058;3.734;2023-12-20T09:17:09;8.10;99.90
57843;DHT22;43673;51.058;3.734;2023-12-20T09:19:37;8.30;99.90
57843;DHT22;43673;51.058;3.734;2023-12-20T09:22:03;8.20;99.90
57843;DHT22;43673;51.058;3.734;2023-12-20T09:24:29;8.00;99.90
57843;DHT22;43673;51.058;3.734;2023-12-20T09:26:55;7.90;99.90
57843;DHT22;43673;51.058;3.734;2023-12-20T09:29:21;7.90;99.90
57843;DHT22;43673;51.058;3.734;2023-12-20T09:31:46;8.00;99.90
57843;DHT22;43673;51.058;3.734;2023-12-20T09:34:15;8.10;99.90
57843;DHT22;43673;51.058;3.734;2023-12-20T09:36:41;8.60;99.90
57843;DHT22;43673;51.058;3.734;2023-12-20T09:39:16;9.30;99.90
57843;DHT22;43673;51.058;3.734;2023-12-20T09:42:01;9.90;99.90
57843;DHT22;43673;51.058;3.734;2023-12-20T09:44:28;10.50;99.90
57843;DHT22;43673;51.058;3.734;2023-12-20T09:46:55;10.70;99.90
57843;DHT22;43673;51.058;3.734;2023-12-20T09:49:21;10.70;99.90
57843;DHT22;43673;51.058;3.734;2023-12-20T09:51:48;10.60;99.90
57843;DHT22;43673;51.058;3.734;2023-12-20T09:54:19;10.40;99.90
57843;DHT22;43673;51.058;3.734;2023-12-20T09:56:46;10.20;99.90
57843;DHT22;43673;51.058;3.734;2023-12-20T09:59:12;10.00;99.90
57843;DHT22;43673;51.058;3.734;2023-12-20T10:01:39;9.80;99.90
57843;DHT22;43673;51.058;3.734;2023-12-20T10:04:06;9.50;99.90
57843;DHT22;43673;51.058;3.734;2023-12-20T10:06:41;9.40;99.90
57843;DHT22;43673;51.058;3.734;2023-12-20T10:09:08;9.40;99.90
57843;DHT22;43673;51.058;3.734;2023-12-20T10:11:35;9.50;99.90
57843;DHT22;43673;51.058;3.734;2023-12-20T10:14:04;9.40;99.90
57843;DHT22;43673;51.058;3.734;2023-12-20T10:16:31;9.40;99.90
57843;DHT22;43673;51.058;3.734;2023-12-20T10:18:57;9.40;99.90
57843;DHT22;43673;51.058;3.734;2023-12-20T10:21:23;9.40;99.90
57843;DHT22;43673;51.058;3.734;2023-12-20T10:23:52;9.40;99.90
57843;DHT22;43673;51.058;3.734;2023-12-20T10:26:23;9.40;99.90
57843;DHT22;43673;51.058;3.734;2023-12-20T10:29:00;9.40;99.90
57843;DHT22;43673;51.058;3.734;2023-12-20T10:31:33;9.30;99.90
57843;DHT22;43673;51.058;3.734;2023-12-20T10:34:01;9.20;99.90
57843;DHT22;43673;51.058;3.734;2023-12-20T10:36:29;9.30;99.90
57843;DHT22;43673;51.058;3.734;2023-12-20T10:38:56;9.40;99.90
57843;DHT22;43673;51.058;3.734;2023-12-20T10:41:32;9.50;99.90
57843;DHT22;43673;51.058;3.734;2023-12-20T10:44:03;9.40;99.90
57843;DHT22;43673;51.058;3.734;2023-12-20T10:46:30;9.30;99.90
57843;DHT22;43673;51.058;3.734;2023-12-20T10:48:57;9.30;99.90
57843;DHT22;43673;51.058;3.734;2023-12-20T10:51:27;9.30;99.90
57843;DHT22;43673;51.058;3.734;2023-12-20T10:53:55;9.40;99.90
57843;DHT22;43673;51.058;3.734;2023-12-20T10:56:21;9.30;99.90
57843;DHT22;43673;51.058;3.734;2023-12-20T10:58:49;9.30;99.90
57843;DHT22;43673;51.058;3.734;2023-12-20T11:01:17;9.30;99.90
57843;DHT22;43673;51.058;3.734;2023-12-20T11:03:53;9.30;99.90
57843;DHT22;43673;51.058;3.734;2023-12-20T11:06:27;9.40;99.90
57843;DHT22;43673;51.058;3.734;2023-12-20T11:09:04;9.50;99.90
57843;DHT22;43673;51.058;3.734;2023-12-20T11:11:45;9.60;99.90
57843;DHT22;43673;51.058;3.734;2023-12-20T11:14:19;9.60;99.90
57843;DHT22;43673;51.058;3.734;2023-12-20T11:16:45;9.70;99.90
57843;DHT22;43673;51.058;3.734;2023-12-20T11:19:11;9.60;99.90
57843;DHT22;43673;51.058;3.734;2023-12-20T11:21:40;9.70;99.90
57843;DHT22;43673;51.058;3.734;2023-12-20T11:24:06;9.70;99.90
57843;DHT22;43673;51.058;3.734;2023-12-20T11:26:32;9.80;99.90
57843;DHT22;43673;51.058;3.734;2023-12-20T11:29:29;9.90;99.90
57843;DHT22;43673;51.058;3.734;2023-12-20T11:31:55;10.00;99.90
57843;DHT22;43673;51.058;3.734;2023-12-20T11:34:20;10.10;99.90
57843;DHT22;43673;51.058;3.734;2023-12-20T11:36:46;10.10;99.90
57843;DHT22;43673;51.058;3.734;2023-12-20T11:39:20;10.10;99.90
57843;DHT22;43673;51.058;3.734;2023-12-20T11:41:46;10.10;99.90
57843;DHT22;43673;51.058;3.734;2023-12-20T11:44:17;10.10;99.90
57843;DHT22;43673;51.058;3.734;2023-12-20T11:46:43;10.10;99.90
57843;DHT22;43673;51.058;3.734;2023-12-20T11:49:09;10.00;99.90
57843;DHT22;43673;51.058;3.734;2023-12-20T11:51:35;10.00;99.90
57843;DHT22;43673;51.058;3.734;2023-12-20T11:54:01;10.00;99.90
57843;DHT22;43673;51.058;3.734;2023-12-20T11:56:26;9.80;99.90
57843;DHT22;43673;51.058;3.734;2023-12-20T11:58:52;9.90;99.90
57843;DHT22;43673;51.058;3.734;2023-12-20T12:01:20;9.90;99.90
57843;DHT22;43673;51.058;3.734;2023-12-20T12:03:46;9.80;99.90
57843;DHT22;43673;51.058;3.734;2023-12-20T12:06:12;9.90;99.90
57843;DHT22;43673;51.058;3.734;2023-12-20T12:08:39;9.80;99.90
57843;DHT22;43673;51.058;3.734;2023-12-20T12:11:04;9.90;99.90
57843;DHT22;43673;51.058;3.734;2023-12-20T12:13:30;10.00;99.90
57843;DHT22;43673;51.058;3.734;2023-12-20T12:15:56;10.10;99.90
57843;DHT22;43673;51.058;3.734;2023-12-20T12:18:23;10.10;99.90
57843;DHT22;43673;51.058;3.734;2023-12-20T12:20:48;9.90;99.90
57843;DHT22;43673;51.058;3.734;2023-12-20T12:23:14;9.90;99.90
57843;DHT22;43673;51.058;3.734;2023-12-20T12:25:48;9.90;99.90
57843;DHT22;43673;51.058;3.734;2023-12-20T12:28:14;10.00;99.90
57843;DHT22;43673;51.058;3.734;2023-12-20T12:30:39;10.10;99.90
57843;DHT22;43673;51.058;3.734;2023-12-20T12:33:05;10.00;99.90
57843;DHT22;43673;51.058;3.734;2023-12-20T12:35:31;10.10;99.90
57843;DHT22;43673;51.058;3.734;2023-12-20T12:37:59;10.30;99.90
57843;DHT22;43673;51.058;3.734;2023-12-20T12:40:25;10.40;99.90
57843;DHT22;43673;51.058;3.734;2023-12-20T12:42:51;10.50;99.90
57843;DHT22;43673;51.058;3.734;2023-12-20T12:45:17;10.60;99.90
57843;DHT22;43673;51.058;3.734;2023-12-20T12:47:43;10.80;99.90
57843;DHT22;43673;51.058;3.734;2023-12-20T12:50:08;10.90;99.90
57843;DHT22;43673;51.058;3.734;2023-12-20T12:52:34;11.00;99.90
57843;DHT22;43673;51.058;3.734;2023-12-20T12:55:00;11.10;99.90
57843;DHT22;43673;51.058;3.734;2023-12-20T12:57:26;10.90;99.90
57843;DHT22;43673;51.058;3.734;2023-12-20T12:59:52;10.80;99.90
57843;DHT22;43673;51.058;3.734;2023-12-20T13:02:18;10.80;99.90
57843;DHT22;43673;51.058;3.734;2023-12-20T13:04:44;10.80;99.90
57843;DHT22;43673;51.058;3.734;2023-12-20T13:07:10;10.90;99.90
57843;DHT22;43673;51.058;3.734;2023-12-20T13:09:37;10.90;99.90
57843;DHT22;43673;51.058;3.734;2023-12-20T13:12:03;10.90;99.90
57843;DHT22;43673;51.058;3.734;2023-12-20T13:14:31;10.90;99.90
57843;DHT22;43673;51.058;3.734;2023-12-20T13:16:58;10.90;99.90
57843;DHT22;43673;51.058;3.734;2023-12-20T13:19:24;10.80;99.90
57843;DHT22;43673;51.058;3.734;2023-12-20T13:21:50;11.00;99.90
57843;DHT22;43673;51.058;3.734;2023-12-20T13:24:15;11.00;99.90
57843;DHT22;43673;51.058;3.734;2023-12-20T13:26:41;11.10;99.90
57843;DHT22;43673;51.058;3.734;2023-12-20T13:29:07;11.10;99.90
57843;DHT22;43673;51.058;3.734;2023-12-20T13:31:32;11.00;99.90
57843;DHT22;43673;51.058;3.734;2023-12-20T13:33:58;10.90;99.90
57843;DHT22;43673;51.058;3.734;2023-12-20T13:36:24;11.00;99.90
57843;DHT22;43673;51.058;3.734;2023-12-20T13:38:50;11.00;99.90
57843;DHT22;43673;51.058;3.734;2023-12-20T13:41:15;10.90;99.90
57843;DHT22;43673;51.058;3.734;2023-12-20T13:43:41;10.90;99.90
57843;DHT22;43673;51.058;3.734;2023-12-20T13:46:08;10.80;99.90
57843;DHT22;43673;51.058;3.734;2023-12-20T13:48:34;10.80;99.90
57843;DHT22;43673;51.058;3.734;2023-12-20T13:51:00;10.90;99.90
57843;DHT22;43673;51.058;3.734;2023-12-20T13:53:28;10.80;99.90
57843;DHT22;43673;51.058;3.734;2023-12-20T13:55:54;10.80;99.90
57843;DHT22;43673;51.058;3.734;2023-12-20T13:58:19;10.80;99.90
57843;DHT22;43673;51.058;3.734;2023-12-20T14:00:45;10.70;99.90
57843;DHT22;43673;51.058;3.734;2023-12-20T14:03:11;10.70;99.90
57843;DHT22;43673;51.058;3.734;2023-12-20T14:05:37;10.70;99.90
57843;DHT22;43673;51.058;3.734;2023-12-20T14:08:03;10.70;99.90
57843;DHT22;43673;51.058;3.734;2023-12-20T14:10:29;10.70;99.90
57843;DHT22;43673;51.058;3.734;2023-12-20T14:12:55;10.60;99.90
57843;DHT22;43673;51.058;3.734;2023-12-20T14:15:21;10.60;99.90
57843;DHT22;43673;51.058;3.734;2023-12-20T14:17:47;10.60;99.90
57843;DHT22;43673;51.058;3.734;2023-12-20T14:20:15;10.60;99.90
57843;DHT22;43673;51.058;3.734;2023-12-20T14:22:41;10.60;99.90
57843;DHT22;43673;51.058;3.734;2023-12-20T14:25:14;10.70;99.90
57843;DHT22;43673;51.058;3.734;2023-12-20T14:27:40;10.70;99.90
57843;DHT22;43673;51.058;3.734;2023-12-20T14:30:09;10.70;99.90
57843;DHT22;43673;51.058;3.734;2023-12-20T14:32:35;10.70;99.90
57843;DHT22;43673;51.058;3.734;2023-12-20T14:35:05;10.60;99.90
57843;DHT22;43673;51.058;3.734;2023-12-20T14:37:32;10.70;99.90
57843;DHT22;43673;51.058;3.734;2023-12-20T14:39:57;10.70;99.90
57843;DHT22;43673;51.058;3.734;2023-12-20T14:42:23;10.80;99.90
57843;DHT22;43673;51.058;3.734;2023-12-20T14:44:49;10.90;99.90
57843;DHT22;43673;51.058;3.734;2023-12-20T14:47:17;10.90;99.90
57843;DHT22;43673;51.058;3.734;2023-12-20T14:49:43;10.70;99.90
57843;DHT22;43673;51.058;3.734;2023-12-20T14:52:10;10.70;99.90
57843;DHT22;43673;51.058;3.734;2023-12-20T14:54:37;10.70;99.90
57843;DHT22;43673;51.058;3.734;2023-12-20T14:57:03;10.60;99.90
57843;DHT22;43673;51.058;3.734;2023-12-20T14:59:29;10.60;99.90
57843;DHT22;43673;51.058;3.734;2023-12-20T15:01:54;10.50;99.90
57843;DHT22;43673;51.058;3.734;2023-12-20T15:04:20;10.60;99.90
57843;DHT22;43673;51.058;3.734;2023-12-20T15:07:01;10.60;99.90
57843;DHT22;43673;51.058;3.734;2023-12-20T15:09:27;10.60;99.90
57843;DHT22;43673;51.058;3.734;2023-12-20T15:11:54;10.60;99.90
57843;DHT22;43673;51.058;3.734;2023-12-20T15:14:20;10.60;99.90
57843;DHT22;43673;51.058;3.734;2023-12-20T15:16:46;10.70;99.90
57843;DHT22;43673;51.058;3.734;2023-12-20T15:19:13;10.50;99.90
57843;DHT22;43673;51.058;3.734;2023-12-20T15:21:39;10.50;99.90
57843;DHT22;43673;51.058;3.734;2023-12-20T15:24:11;10.50;99.90
57843;DHT22;43673;51.058;3.734;2023-12-20T15:26:43;10.50;99.90
57843;DHT22;43673;51.058;3.734;2023-12-20T15:29:10;10.60;99.90
57843;DHT22;43673;51.058;3.734;2023-12-20T15:31:44;10.50;99.90
57843;DHT22;43673;51.058;3.734;2023-12-20T15:34:11;10.50;99.90
57843;DHT22;43673;51.058;3.734;2023-12-20T15:36:37;10.50;99.90
57843;DHT22;43673;51.058;3.734;2023-12-20T15:39:03;10.60;99.90
57843;DHT22;43673;51.058;3.734;2023-12-20T15:41:29;10.50;99.90